Time;durP1;ratioP1;P1;durP2;ratioP2;P2;SDS_P1;SDS_P2;PMS_P1;PMS_P2;Temp;Humidity;BMP_temperature;BMP_pressure;BME280_temperature;BME280_humidity;BME280_pressure;Samples;Min_cycle;Max_cycle;Signal;HPM_P1;HPM_P2
2022/05/27 00:00:42;;;;;;;1.63;1.50;;;;;;;17.44;64.33;99253.81;5020962;27;103487;-69
2022/05/27 00:03:11;;;;;;;1.70;1.45;;;;;;;17.22;65.47;99248.75;5022591;27;103264;-66
2022/05/27 00:05:39;;;;;;;1.70;1.27;;;;;;;17.28;65.01;99248.22;5026586;27;102823;-66
2022/05/27 00:08:08;;;;;;;1.83;1.15;;;;;;;17.30;64.86;99251.56;5007468;27;103782;-66
2022/05/27 00:10:36;;;;;;;2.00;1.33;;;;;;;17.17;65.02;99251.00;5024216;27;103679;-66
2022/05/27 00:13:05;;;;;;;1.40;1.20;;;;;;;17.26;64.67;99255.53;5003163;27;104651;-66
2022/05/27 00:15:33;;;;;;;1.77;1.45;;;;;;;17.15;64.69;99258.31;5004840;28;102693;-66
2022/05/27 00:18:02;;;;;;;1.83;1.40;;;;;;;17.07;65.74;99244.81;5029461;27;102731;-66
2022/05/27 00:20:32;;;;;;;0.97;0.90;;;;;;;17.18;64.48;99247.34;5024285;27;104655;-67
2022/05/27 00:23:00;;;;;;;1.98;1.30;;;;;;;17.15;65.18;99236.97;5007771;27;104104;-66
2022/05/27 00:25:28;;;;;;;2.00;1.27;;;;;;;16.77;66.96;99243.06;5029124;27;102645;-66
2022/05/27 00:27:57;;;;;;;1.55;1.08;;;;;;;16.99;65.72;99239.31;5023501;27;102733;-66
2022/05/27 00:30:27;;;;;;;1.70;1.00;;;;;;;17.00;65.56;99243.69;5026565;27;104310;-67
2022/05/27 00:32:55;;;;;;;1.55;1.45;;;;;;;17.10;65.15;99239.19;5020135;27;103189;-66
2022/05/27 00:35:25;;;;;;;1.23;1.13;;;;;;;17.05;65.41;99236.94;5021544;27;102819;-66
2022/05/27 00:37:53;;;;;;;1.77;1.17;;;;;;;16.96;66.10;99236.91;5021120;27;103083;-66
2022/05/27 00:40:22;;;;;;;1.27;1.17;;;;;;;17.05;65.33;99236.94;5002524;27;104328;-66
2022/05/27 00:42:50;;;;;;;2.35;1.75;;;;;;;16.98;66.01;99229.63;5024096;27;103235;-66
2022/05/27 00:45:21;;;;;;;1.60;1.38;;;;;;;16.90;66.45;99237.50;5033485;27;103318;-66
2022/05/27 00:47:53;;;;;;;2.00;1.30;;;;;;;16.68;66.99;99238.53;5029755;27;103745;-68
2022/05/27 00:50:30;;;;;;;2.72;1.30;;;;;;;16.70;67.32;99229.41;5027586;27;103267;-68
2022/05/27 00:52:58;;;;;;;2.33;1.50;;;;;;;16.66;67.47;99221.84;5023274;27;103228;-68
2022/05/27 00:55:30;;;;;;;1.73;1.10;;;;;;;16.73;67.05;99210.47;5028521;27;103025;-68
2022/05/27 00:58:04;;;;;;;1.58;1.40;;;;;;;16.75;67.15;99213.88;5024156;27;102791;-68
2022/05/27 01:00:32;;;;;;;2.13;1.35;;;;;;;16.83;66.69;99210.50;5025324;27;103279;-68
2022/05/27 01:03:04;;;;;;;1.77;1.23;;;;;;;16.69;67.26;99221.56;5022580;27;103152;-68
2022/05/27 01:05:33;;;;;;;1.10;0.90;;;;;;;16.76;66.47;99215.53;5017600;27;102747;-68
2022/05/27 01:08:04;;;;;;;1.70;1.30;;;;;;;16.70;66.87;99221.41;5025055;27;104197;-68
2022/05/27 01:10:46;;;;;;;1.47;1.23;;;;;;;16.67;67.00;99224.34;5005040;27;104185;-68
2022/05/27 01:13:27;;;;;;;2.35;1.45;;;;;;;16.50;68.01;99219.66;5025075;27;103159;-68
2022/05/27 01:16:06;;;;;;;1.63;1.20;;;;;;;16.55;67.72;99219.28;5026461;27;102738;-68
2022/05/27 01:21:45;;;;;;;1.40;1.20;;;;;;;16.54;67.73;99220.25;5013834;27;103371;-68
2022/05/27 01:24:32;;;;;;;1.33;1.10;;;;;;;16.57;66.86;99212.81;5030132;27;103006;-68
2022/05/27 01:27:42;;;;;;;1.10;0.95;;;;;;;16.54;67.87;99215.75;5024454;27;102631;-68
2022/05/27 01:30:23;;;;;;;1.10;0.98;;;;;;;16.55;67.25;99220.13;4987355;27;104433;-68
2022/05/27 01:33:03;;;;;;;1.20;1.10;;;;;;;16.56;66.78;99219.13;5012736;27;104343;-68
2022/05/27 01:35:42;;;;;;;2.17;1.33;;;;;;;16.50;67.48;99211.66;5017954;27;104133;-68
2022/05/27 01:38:18;;;;;;;1.93;1.57;;;;;;;16.23;68.72;99219.41;5023601;27;102896;-68
2022/05/27 01:40:56;;;;;;;1.80;1.20;;;;;;;16.32;68.42;99215.94;5023916;27;102632;-68
2022/05/27 01:43:36;;;;;;;1.48;1.20;;;;;;;16.35;68.29;99215.69;5024813;27;104040;-68
2022/05/27 01:46:12;;;;;;;2.13;1.27;;;;;;;16.34;68.24;99213.97;5025157;27;103361;-68
2022/05/27 01:48:48;;;;;;;1.90;1.52;;;;;;;16.35;68.75;99213.00;5026879;27;102784;-68
2022/05/27 01:51:23;;;;;;;1.15;1.05;;;;;;;16.37;68.22;99212.84;5026035;27;103935;-68
2022/05/27 01:53:56;;;;;;;1.65;1.08;;;;;;;16.31;68.75;99208.91;5023215;27;103900;-68
2022/05/27 01:56:31;;;;;;;1.83;1.13;;;;;;;16.40;68.20;99201.94;5022813;27;103467;-68
2022/05/27 01:59:02;;;;;;;3.28;1.33;;;;;;;16.44;68.08;99204.22;5024055;27;102688;-68
2022/05/27 02:01:36;;;;;;;1.50;1.25;;;;;;;16.36;68.26;99206.72;5024611;27;103534;-68
2022/05/27 02:04:09;;;;;;;1.83;1.50;;;;;;;16.40;68.58;99197.44;5019070;28;104166;-68
2022/05/27 02:06:43;;;;;;;2.65;1.20;;;;;;;16.34;68.17;99197.97;5026207;27;103192;-68
2022/05/27 02:09:17;;;;;;;1.30;1.13;;;;;;;16.36;68.30;99196.03;5021914;27;102923;-68
2022/05/27 02:11:49;;;;;;;2.88;1.60;;;;;;;16.32;68.42;99186.63;5026358;27;104696;-68
2022/05/27 02:14:21;;;;;;;1.43;1.33;;;;;;;15.68;71.87;99185.19;5019011;27;104349;-69
2022/05/27 02:16:55;;;;;;;2.17;1.50;;;;;;;15.72;71.58;99199.94;5025647;27;103227;-68
2022/05/27 02:19:29;;;;;;;1.93;1.40;;;;;;;15.87;70.85;99204.78;5027791;27;102604;-68
2022/05/27 02:22:00;;;;;;;2.05;1.40;;;;;;;16.05;70.21;99197.88;5029934;27;102906;-68
2022/05/27 02:24:37;;;;;;;2.73;1.50;;;;;;;15.95;70.69;99201.44;5027996;27;103425;-68
2022/05/27 02:27:08;;;;;;;2.38;1.40;;;;;;;16.04;70.29;99200.66;5025161;27;103245;-68
2022/05/27 02:29:38;;;;;;;1.50;1.20;;;;;;;16.15;68.64;99192.56;5026021;27;102949;-68
2022/05/27 02:32:10;;;;;;;1.10;1.00;;;;;;;16.20;68.69;99185.88;5016393;27;102811;-68
2022/05/27 02:37:36;;;;;;;1.77;1.23;;;;;;;16.05;69.51;99184.56;5025749;27;103387;-68
2022/05/27 02:40:08;;;;;;;3.28;1.40;;;;;;;16.02;70.17;99165.31;5025189;27;103007;-68
2022/05/27 02:42:45;;;;;;;1.40;1.30;;;;;;;15.97;70.03;99178.19;5020779;27;104075;-68
2022/05/27 02:45:21;;;;;;;1.73;1.40;;;;;;;15.82;70.84;99174.19;5023688;27;104306;-68
2022/05/27 02:47:56;;;;;;;1.50;1.20;;;;;;;15.69;71.47;99170.91;5009198;27;103791;-68
2022/05/27 02:50:31;;;;;;;2.10;1.33;;;;;;;15.72;70.50;99174.13;5023288;27;102731;-68
2022/05/27 02:53:07;;;;;;;1.40;1.27;;;;;;;15.88;70.67;99173.66;5022244;27;104016;-68
2022/05/27 02:55:45;;;;;;;1.30;1.20;;;;;;;15.83;71.13;99165.22;5025834;27;103609;-68
2022/05/27 02:58:12;;;;;;;1.55;1.10;;;;;;;15.96;70.37;99181.84;5023988;27;103159;-68
2022/05/27 03:00:40;;;;;;;1.58;1.10;;;;;;;16.11;69.46;99172.50;5016594;27;103058;-68
2022/05/27 03:03:10;;;;;;;2.70;1.55;;;;;;;15.96;70.83;99177.34;5029271;27;104392;-68
2022/05/27 03:05:51;;;;;;;1.40;1.30;;;;;;;16.17;70.45;99174.63;5024295;27;104046;-68
2022/05/27 03:08:24;;;;;;;1.73;1.23;;;;;;;16.21;70.10;99176.06;5027314;27;103521;-68
2022/05/27 03:11:05;;;;;;;1.98;1.50;;;;;;;16.15;70.49;99166.78;5029331;27;102749;-68
2022/05/27 03:14:04;;;;;;;3.15;1.70;;;;;;;16.03;71.38;99167.84;5005685;27;102771;-68
2022/05/27 03:16:40;;;;;;;2.40;1.65;;;;;;;15.64;72.41;99164.13;5022714;27;103218;-68
2022/05/27 03:19:50;;;;;;;2.73;1.50;;;;;;;15.43;73.44;99168.59;5025323;27;103470;-68
2022/05/27 03:22:30;;;;;;;1.38;1.17;;;;;;;15.84;71.65;99177.56;4958992;28;102607;-68
2022/05/27 03:25:12;;;;;;;2.85;1.70;;;;;;;15.86;71.65;99181.78;4960398;28;104109;-68
2022/05/27 03:27:45;;;;;;;1.88;1.40;;;;;;;15.80;72.27;99171.66;5005974;27;103658;-68
2022/05/27 03:30:18;;;;;;;2.88;1.50;;;;;;;16.05;71.33;99168.56;5024977;27;103058;-68
2022/05/27 03:32:55;;;;;;;1.77;1.40;;;;;;;15.91;71.58;99168.06;5023275;27;102969;-68
2022/05/27 03:35:33;;;;;;;1.90;1.50;;;;;;;16.02;71.11;99175.97;5021559;27;103664;-69
2022/05/27 03:38:07;;;;;;;2.75;1.60;;;;;;;16.28;70.33;99179.84;5017606;27;104614;-69
2022/05/27 03:40:43;;;;;;;2.55;1.48;;;;;;;16.17;70.76;99177.28;5025468;27;103238;-69
2022/05/27 03:43:12;;;;;;;1.92;1.65;;;;;;;16.09;71.32;99172.63;5022731;27;103007;-69
2022/05/27 03:45:53;;;;;;;2.10;1.60;;;;;;;16.37;70.28;99170.19;5004927;27;104284;-69
2022/05/27 03:48:22;;;;;;;2.13;1.30;;;;;;;16.32;70.51;99173.28;5023573;27;103534;-69
2022/05/27 03:50:54;;;;;;;1.20;1.10;;;;;;;16.50;69.10;99182.34;5024558;27;103194;-69
2022/05/27 03:54:03;;;;;;;3.10;1.67;;;;;;;16.44;69.87;99180.19;5023971;27;102710;-69
2022/05/27 03:56:12;;;;;;;2.40;1.60;;;;;;;16.18;70.40;99182.50;5024477;27;103935;-69
2022/05/27 03:58:40;;;;;;;2.20;1.67;;;;;;;16.32;70.61;99185.75;5009606;27;104301;-69
2022/05/27 04:01:08;;;;;;;3.42;1.67;;;;;;;16.29;70.92;99186.88;5024434;27;103349;-69
2022/05/27 04:03:36;;;;;;;2.35;1.30;;;;;;;16.57;69.53;99190.63;5021170;27;103054;-69
2022/05/27 04:06:05;;;;;;;1.80;1.40;;;;;;;16.56;69.16;99186.31;5023718;27;102740;-69
2022/05/27 04:08:35;;;;;;;1.90;1.53;;;;;;;16.52;69.57;99191.03;5005842;27;104195;-69
2022/05/27 04:11:06;;;;;;;2.17;1.35;;;;;;;16.54;69.39;99183.75;5009912;27;104291;-69
2022/05/27 04:13:34;;;;;;;1.80;1.50;;;;;;;16.55;69.21;99184.59;5003733;27;102993;-68
2022/05/27 04:16:02;;;;;;;1.85;1.30;;;;;;;16.64;69.29;99184.66;5025642;27;102606;-68
2022/05/27 04:18:29;;;;;;;1.30;1.13;;;;;;;16.79;68.74;99183.25;5013351;27;103965;-68
2022/05/27 04:20:57;;;;;;;1.88;1.35;;;;;;;16.75;68.81;99178.34;5025498;27;103208;-67
2022/05/27 04:23:26;;;;;;;1.30;1.20;;;;;;;16.79;68.31;99171.72;5027594;27;102760;-67
2022/05/27 04:25:54;;;;;;;2.25;1.40;;;;;;;16.83;68.18;99177.63;5031867;27;103941;-68
2022/05/27 04:28:22;;;;;;;2.10;1.33;;;;;;;16.88;68.41;99178.06;5026963;27;103945;-68
2022/05/27 04:30:50;;;;;;;2.45;1.48;;;;;;;16.91;68.12;99175.13;5010568;27;104408;-76
2022/05/27 04:33:18;;;;;;;2.25;1.55;;;;;;;16.84;67.97;99184.66;5040074;27;102625;-77
2022/05/27 04:35:46;;;;;;;2.00;1.70;;;;;;;16.76;68.76;99188.84;5034986;27;102729;-77
2022/05/27 04:38:15;;;;;;;2.45;1.70;;;;;;;16.71;69.09;99177.75;5017212;27;104216;-76
2022/05/27 04:40:44;;;;;;;2.65;1.50;;;;;;;16.77;69.64;99185.22;5035231;27;103403;-75
2022/05/27 04:43:15;;;;;;;2.10;1.50;;;;;;;16.86;68.82;99177.38;5040591;27;102544;-76
2022/05/27 04:45:43;;;;;;;1.90;1.50;;;;;;;16.85;69.06;99178.34;5038889;27;104452;-76
2022/05/27 04:48:13;;;;;;;2.40;1.58;;;;;;;16.94;68.66;99182.84;5012758;27;103520;-76
2022/05/27 04:50:41;;;;;;;1.52;1.35;;;;;;;16.91;69.58;99175.13;5043989;27;102970;-76
2022/05/27 04:53:10;;;;;;;3.97;1.20;;;;;;;16.97;69.43;99187.91;5030024;27;102682;-76
2022/05/27 04:55:42;;;;;;;2.45;1.60;;;;;;;16.94;69.58;99180.19;5033551;27;102635;-76
2022/05/27 04:58:12;;;;;;;2.20;2.00;;;;;;;16.59;71.19;99181.53;5013775;27;104364;-75
2022/05/27 05:00:43;;;;;;;3.25;1.98;;;;;;;16.89;70.15;99185.09;5022378;27;105368;-77
2022/05/27 05:03:11;;;;;;;2.50;1.80;;;;;;;17.09;69.09;99189.47;5017390;27;102655;-76
2022/05/27 05:05:40;;;;;;;2.33;1.70;;;;;;;17.05;69.65;99193.38;5040137;27;104104;-78
2022/05/27 05:08:14;;;;;;;2.00;1.55;;;;;;;17.24;69.13;99201.41;5033930;27;104256;-76
2022/05/27 05:10:42;;;;;;;2.00;1.60;;;;;;;17.23;69.49;99197.91;5028635;27;103218;-77
2022/05/27 05:13:11;;;;;;;4.40;1.80;;;;;;;17.27;69.11;99203.78;5037537;27;102695;-78
2022/05/27 05:15:40;;;;;;;2.20;1.83;;;;;;;17.08;69.68;99201.13;5032013;27;104106;-77
2022/05/27 05:18:08;;;;;;;1.90;1.60;;;;;;;17.36;69.61;99198.47;5035143;27;103640;-77
2022/05/27 05:20:36;;;;;;;2.17;1.90;;;;;;;17.48;69.07;99201.81;5031865;27;103298;-76
2022/05/27 05:23:06;;;;;;;2.38;1.95;;;;;;;17.23;70.26;99199.72;5035402;27;102674;-76
2022/05/27 05:25:34;;;;;;;2.53;1.80;;;;;;;17.55;69.22;99205.63;5037450;27;104086;-77
2022/05/27 05:28:02;;;;;;;3.33;1.75;;;;;;;17.39;70.69;99200.00;5035676;27;104235;-77
2022/05/27 05:30:36;;;;;;;2.67;1.60;;;;;;;17.47;69.68;99205.47;5035733;27;103348;-77
2022/05/27 05:33:05;;;;;;;2.15;1.75;;;;;;;17.58;69.93;99208.03;5005778;27;102771;-77
2022/05/27 05:35:34;;;;;;;1.88;1.65;;;;;;;17.81;68.98;99213.88;5013308;27;102741;-77
2022/05/27 05:38:03;;;;;;;3.28;2.40;;;;;;;17.33;69.69;99208.56;5033639;27;104652;-77
2022/05/27 05:40:34;;;;;;;3.33;2.10;;;;;;;17.13;70.67;99225.56;5033587;27;103159;-76
2022/05/27 05:43:02;;;;;;;3.87;2.27;;;;;;;17.05;72.01;99214.75;5024034;27;102920;-77
2022/05/27 05:45:30;;;;;;;3.75;2.10;;;;;;;17.14;71.18;99219.25;5013443;27;102800;-77
2022/05/27 05:48:00;;;;;;;3.42;2.15;;;;;;;17.37;69.91;99221.50;5030236;27;103237;-77
2022/05/27 05:50:28;;;;;;;2.50;2.20;;;;;;;17.38;69.83;99222.34;5029676;27;103231;-77
2022/05/27 05:52:56;;;;;;;3.05;1.80;;;;;;;17.53;69.02;99212.91;5030234;27;102692;-77
2022/05/27 05:55:24;;;;;;;4.38;2.25;;;;;;;17.69;68.64;99215.88;5037837;27;103951;-77
2022/05/27 05:57:52;;;;;;;3.35;2.67;;;;;;;17.44;70.25;99212.91;5014263;27;104435;-78
2022/05/27 06:00:23;;;;;;;2.33;2.13;;;;;;;17.75;69.45;99215.31;5017106;27;104620;-78
2022/05/27 06:02:54;;;;;;;3.03;2.28;;;;;;;17.70;69.24;99214.91;5020273;27;102595;-77
2022/05/27 06:05:25;;;;;;;3.67;2.50;;;;;;;17.79;69.13;99211.38;5032309;27;103566;-78
2022/05/27 06:07:56;;;;;;;3.05;2.75;;;;;;;17.66;69.92;99215.31;5037775;27;104292;-77
2022/05/27 06:10:24;;;;;;;3.75;3.00;;;;;;;17.44;69.96;99213.75;5021857;27;104341;-77
2022/05/27 06:12:52;;;;;;;3.55;2.80;;;;;;;17.73;69.28;99219.97;5028158;27;102597;-81
2022/05/27 06:15:21;;;;;;;4.90;2.60;;;;;;;18.03;68.81;99218.91;5011838;27;103126;-71
2022/05/27 06:17:49;;;;;;;4.30;3.13;;;;;;;17.65;69.76;99219.84;5004435;27;103810;-71
2022/05/27 06:20:19;;;;;;;2.90;2.60;;;;;;;18.01;69.02;99214.69;5005158;27;104138;-71
2022/05/27 06:22:49;;;;;;;3.40;3.03;;;;;;;18.03;68.64;99216.22;5020985;27;102701;-73
2022/05/27 06:25:22;;;;;;;3.10;2.50;;;;;;;18.15;68.50;99223.09;5024123;27;102631;-71
2022/05/27 06:27:50;;;;;;;5.03;3.03;;;;;;;17.92;69.78;99222.59;5020161;27;103967;-71
2022/05/27 06:35:53;;;;;;;3.13;2.45;;;;;;;18.35;68.36;99218.50;5014776;27;102723;-71
2022/05/27 06:38:23;;;;;;;3.40;2.67;;;;;;;17.90;69.26;99224.56;5018895;27;103979;-71
2022/05/27 06:40:51;;;;;;;3.55;2.75;;;;;;;17.73;69.89;99233.31;5008243;27;103217;-72
2022/05/27 06:43:19;;;;;;;4.68;2.75;;;;;;;17.65;69.96;99227.84;5023157;27;102993;-74
2022/05/27 06:45:47;;;;;;;4.63;2.67;;;;;;;17.57;69.79;99227.69;5026409;27;104011;-71
2022/05/27 06:48:17;;;;;;;3.50;2.33;;;;;;;17.25;70.92;99232.47;5024470;27;103980;-71
2022/05/27 06:50:45;;;;;;;3.20;2.50;;;;;;;17.72;69.65;99236.97;5008948;27;102825;-72
2022/05/27 06:53:13;;;;;;;6.07;2.97;;;;;;;17.27;71.54;99235.84;5024416;27;102962;-72
2022/05/27 06:55:42;;;;;;;3.75;2.65;;;;;;;17.45;70.90;99233.31;5025134;27;103941;-82
2022/05/27 06:58:10;;;;;;;3.17;2.50;;;;;;;17.92;69.57;99232.44;5027435;27;104409;-83
2022/05/27 07:00:38;;;;;;;4.20;2.30;;;;;;;17.98;69.18;99231.88;5034103;27;103224;-83
2022/05/27 07:03:07;;;;;;;3.85;2.60;;;;;;;17.27;70.91;99235.84;5012998;27;102737;-85
2022/05/27 07:05:36;;;;;;;3.38;2.38;;;;;;;17.70;70.09;99238.94;5037447;27;104400;-85
2022/05/27 07:08:06;;;;;;;4.95;2.53;;;;;;;17.79;69.59;99224.75;5036917;27;103938;-82
2022/05/27 07:10:34;;;;;;;6.03;2.60;;;;;;;17.79;69.31;99222.06;5032394;27;103455;-83
2022/05/27 07:13:09;;;;;;;3.00;2.28;;;;;;;17.96;69.34;99229.31;5009080;27;102824;-73
2022/05/27 07:15:39;;;;;;;2.75;2.13;;;;;;;18.40;67.52;99227.78;5023503;27;104350;-73
2022/05/27 07:18:09;;;;;;;3.38;2.65;;;;;;;17.75;69.64;99235.84;5011399;27;103360;-73
2022/05/27 07:20:37;;;;;;;4.57;2.25;;;;;;;17.98;68.41;99231.88;5020663;27;103240;-74
2022/05/27 07:23:05;;;;;;;3.70;2.10;;;;;;;18.27;67.51;99229.09;5021181;27;102716;-74
2022/05/27 07:25:35;;;;;;;3.93;2.60;;;;;;;17.83;68.82;99234.13;5025306;27;104366;-73
2022/05/27 07:28:11;;;;;;;3.83;2.63;;;;;;;17.61;70.35;99229.13;5015721;27;103943;-74
2022/05/27 07:30:39;;;;;;;5.23;2.40;;;;;;;17.99;68.45;99230.03;5014576;27;105407;-73
2022/05/27 07:33:07;;;;;;;2.87;2.23;;;;;;;18.03;68.63;99228.75;5010331;27;102738;-73
2022/05/27 07:35:35;;;;;;;3.45;2.17;;;;;;;18.07;68.91;99232.81;5025924;27;104151;-73
2022/05/27 07:38:02;;;;;;;5.70;2.53;;;;;;;18.08;68.85;99226.50;5028679;27;103223;-73
2022/05/27 07:40:30;;;;;;;4.38;2.45;;;;;;;18.18;68.44;99227.28;5027632;27;103206;-73
2022/05/27 07:42:58;;;;;;;4.73;3.00;;;;;;;18.29;67.97;99227.13;5023419;27;102875;-73
2022/05/27 07:45:29;;;;;;;4.05;2.25;;;;;;;18.31;67.79;99233.16;5005527;27;104272;-73
2022/05/27 07:47:57;;;;;;;3.60;2.17;;;;;;;18.46;67.82;99231.69;5022508;27;104163;-73
2022/05/27 07:50:26;;;;;;;4.18;2.50;;;;;;;18.20;67.71;99231.50;4989117;27;104097;-71
2022/05/27 07:52:54;;;;;;;4.53;2.10;;;;;;;18.55;66.57;99228.16;5025763;27;102865;-71
2022/05/27 07:55:22;;;;;;;3.58;2.25;;;;;;;18.48;67.45;99229.75;5024628;27;104527;-71
2022/05/27 07:57:50;;;;;;;4.50;2.50;;;;;;;18.24;67.19;99230.25;5029210;27;103806;-73
2022/05/27 08:00:21;;;;;;;3.80;2.30;;;;;;;18.07;68.47;99236.34;5007111;27;103312;-72
2022/05/27 08:02:50;;;;;;;3.38;2.42;;;;;;;18.11;68.63;99232.38;5029620;27;103254;-73
2022/05/27 08:05:20;;;;;;;3.83;2.08;;;;;;;18.54;67.33;99226.47;5035118;27;104211;-73
2022/05/27 08:07:49;;;;;;;4.97;2.05;;;;;;;18.13;67.56;99229.56;5034737;27;103195;-73
2022/05/27 08:10:19;;;;;;;3.05;2.13;;;;;;;18.34;67.68;99235.53;5020788;27;104144;-73
2022/05/27 08:12:47;;;;;;;3.80;2.22;;;;;;;18.30;67.92;99236.84;5030422;27;102637;-74
2022/05/27 08:15:15;;;;;;;2.63;2.20;;;;;;;18.57;66.33;99234.22;5028175;27;104088;-74
2022/05/27 08:17:46;;;;;;;3.50;1.90;;;;;;;18.37;67.29;99236.09;5031839;27;104023;-74
2022/05/27 08:20:18;;;;;;;3.30;1.92;;;;;;;18.70;66.27;99241.88;5023611;27;103394;-74
2022/05/27 08:22:47;;;;;;;2.45;2.00;;;;;;;18.78;65.68;99236.66;5033022;27;103059;-72
2022/05/27 08:25:15;;;;;;;2.72;2.00;;;;;;;18.74;66.61;99241.44;5027397;27;102669;-73
2022/05/27 08:27:44;;;;;;;2.97;2.10;;;;;;;18.78;66.05;99242.00;5029683;27;104206;-72
2022/05/27 08:30:18;;;;;;;2.67;1.92;;;;;;;18.70;66.22;99242.72;5029755;27;103207;-75
2022/05/27 08:32:51;;;;;;;3.33;2.00;;;;;;;18.99;65.67;99239.88;5033789;27;102785;-72
2022/05/27 08:38:09;;;;;;;4.18;2.28;;;;;;;18.69;66.74;99254.44;5019089;27;103693;-73
2022/05/27 08:40:58;;;;;;;5.00;2.38;;;;;;;18.37;67.15;99253.97;5024365;27;103183;-73
2022/05/27 08:43:34;;;;;;;4.97;2.58;;;;;;;18.22;68.61;99252.75;5023233;27;102971;-72
2022/05/27 08:46:24;;;;;;;3.10;2.10;;;;;;;18.93;66.12;99252.03;5012708;27;103886;-75
2022/05/27 08:49:04;;;;;;;5.55;2.25;;;;;;;18.64;66.69;99254.00;5015893;27;104512;-74
2022/05/27 08:51:53;;;;;;;3.85;2.17;;;;;;;18.21;66.84;99265.31;5034103;27;104135;-73
2022/05/27 08:54:27;;;;;;;5.28;2.58;;;;;;;18.26;67.31;99251.47;5029247;27;102726;-73
2022/05/27 08:59:52;;;;;;;3.17;2.50;;;;;;;18.39;65.94;99254.66;5035038;27;104053;-73
2022/05/27 09:02:31;;;;;;;3.20;2.05;;;;;;;18.94;65.23;99261.75;5034411;27;103190;-73
2022/05/27 09:05:16;;;;;;;3.38;2.60;;;;;;;18.34;66.40;99262.28;5016141;27;102770;-72
2022/05/27 09:07:50;;;;;;;3.55;2.50;;;;;;;19.18;64.92;99254.97;5031327;27;102646;-73
2022/05/27 09:10:23;;;;;;;5.53;2.60;;;;;;;19.54;62.88;99256.69;5005681;27;103314;-74
2022/05/27 09:13:08;;;;;;;3.03;1.90;;;;;;;19.95;62.71;99255.19;5015473;27;103486;-72
2022/05/27 09:15:48;;;;;;;2.78;1.90;;;;;;;19.67;62.95;99251.78;5008597;27;102706;-73
2022/05/27 09:18:27;;;;;;;3.67;2.40;;;;;;;19.49;62.51;99253.63;5030442;27;103831;-73
2022/05/27 09:21:11;;;;;;;3.23;2.60;;;;;;;19.72;62.10;99244.13;5020803;27;103517;-73
2022/05/27 09:24:13;;;;;;;4.35;2.30;;;;;;;20.17;60.77;99250.16;5014505;27;103709;-73
2022/05/27 09:26:44;;;;;;;4.43;2.15;;;;;;;20.65;60.57;99238.03;5022723;27;102669;-73
2022/05/27 09:29:35;;;;;;;2.50;2.00;;;;;;;19.85;61.50;99239.19;5025604;27;103055;-74
2022/05/27 09:32:07;;;;;;;4.10;2.25;;;;;;;19.85;59.90;99236.50;5027324;27;104136;-73
2022/05/27 09:34:38;;;;;;;1.83;1.73;;;;;;;19.72;60.26;99233.41;5013516;27;104573;-73
2022/05/27 09:37:09;;;;;;;3.03;2.00;;;;;;;19.81;61.01;99235.16;5013857;27;102658;-73
2022/05/27 09:39:38;;;;;;;3.67;2.03;;;;;;;20.10;58.82;99237.50;5018073;27;104102;-70
2022/05/27 09:42:15;;;;;;;4.68;1.95;;;;;;;19.36;61.98;99242.44;5023131;27;103318;-73
2022/05/27 09:44:48;;;;;;;2.05;1.83;;;;;;;19.15;60.42;99231.16;5027459;27;103195;-73
2022/05/27 09:47:17;;;;;;;5.23;2.20;;;;;;;19.57;58.99;99240.31;5015975;27;102674;-73
2022/05/27 09:49:48;;;;;;;3.67;1.97;;;;;;;19.51;60.47;99235.56;5024381;27;104391;-73
2022/05/27 09:52:16;;;;;;;3.28;1.85;;;;;;;19.84;59.23;99237.53;5011498;27;104108;-73
2022/05/27 09:54:49;;;;;;;3.77;2.03;;;;;;;19.98;58.80;99239.63;5021600;27;103178;-73
2022/05/27 09:57:25;;;;;;;2.65;1.80;;;;;;;20.42;58.21;99227.00;5021496;27;102604;-73
2022/05/27 09:59:56;;;;;;;3.60;2.08;;;;;;;20.41;56.60;99224.47;5026330;27;102916;-73
2022/05/27 10:02:30;;;;;;;2.53;1.88;;;;;;;20.67;57.61;99222.59;5024581;27;103477;-73
2022/05/27 10:05:05;;;;;;;2.38;1.70;;;;;;;20.62;57.78;99214.19;5005737;27;104190;-73
2022/05/27 10:07:36;;;;;;;3.30;2.00;;;;;;;20.93;57.51;99201.88;5026831;27;102748;-73
2022/05/27 10:10:28;;;;;;;1.70;1.52;;;;;;;21.36;54.88;99198.94;5033889;27;103502;-73
2022/05/27 10:12:57;;;;;;;3.35;1.90;;;;;;;20.61;56.21;99207.13;5020349;27;103542;-73
2022/05/27 10:15:33;;;;;;;3.00;1.70;;;;;;;20.70;56.75;99201.63;5005253;27;104312;-73
2022/05/27 10:18:17;;;;;;;2.63;1.50;;;;;;;21.16;54.96;99194.91;5029068;27;102974;-73
2022/05/27 10:20:50;;;;;;;2.70;1.75;;;;;;;20.58;56.30;99194.88;5009648;27;103710;-73
2022/05/27 10:23:25;;;;;;;2.65;1.80;;;;;;;21.07;55.69;99195.88;5020902;27;103702;-73
2022/05/27 10:26:18;;;;;;;2.45;1.95;;;;;;;20.36;57.21;99190.06;5027058;27;103188;-73
2022/05/27 10:28:57;;;;;;;1.60;1.50;;;;;;;20.80;57.13;99186.22;5028005;27;102602;-73
2022/05/27 10:31:26;;;;;;;2.42;1.60;;;;;;;21.04;56.72;99179.22;5019831;27;103925;-73
2022/05/27 10:33:54;;;;;;;2.40;1.50;;;;;;;21.42;54.35;99169.72;5016214;27;104698;-73
2022/05/27 10:36:35;;;;;;;2.28;1.50;;;;;;;21.23;53.09;99169.03;5027489;27;103385;-73
2022/05/27 10:39:05;;;;;;;2.95;1.60;;;;;;;20.97;54.15;99181.72;5027498;27;103096;-73
2022/05/27 10:41:48;;;;;;;1.83;1.48;;;;;;;21.32;53.92;99172.56;5010306;27;103982;-74
2022/05/27 10:44:29;;;;;;;1.70;1.30;;;;;;;21.09;54.43;99169.69;5022718;27;103751;-73
2022/05/27 10:46:59;;;;;;;2.08;1.30;;;;;;;21.63;52.29;99170.03;5023673;27;103250;-73
2022/05/27 10:49:50;;;;;;;1.90;1.38;;;;;;;21.13;53.58;99162.16;5028019;27;103444;-73
2022/05/27 10:52:31;;;;;;;2.00;1.40;;;;;;;21.06;53.15;99167.28;5013229;27;103843;-72
2022/05/27 10:55:15;;;;;;;1.50;1.37;;;;;;;21.19;52.53;99170.34;5028954;27;103381;-73
2022/05/27 11:04:23;;;;;;;3.13;1.30;;;;;;;21.19;53.20;99173.03;5029989;27;103151;-73
2022/05/27 11:07:05;;;;;;;2.70;1.40;;;;;;;20.92;54.40;99170.63;4950648;28;104049;-73
2022/05/27 11:09:43;;;;;;;2.75;1.67;;;;;;;21.21;54.85;99163.00;5016971;27;103269;-73
2022/05/27 11:12:20;;;;;;;2.90;1.60;;;;;;;21.59;54.11;99155.25;5021239;27;102816;-72
2022/05/27 11:15:11;;;;;;;2.63;1.60;;;;;;;21.26;54.81;99152.56;5021996;27;103945;-74
2022/05/27 11:17:51;;;;;;;1.90;1.60;;;;;;;21.45;54.09;99164.81;5020464;27;103790;-72
2022/05/27 11:20:58;;;;;;;3.80;1.85;;;;;;;21.98;54.07;99156.22;5012355;27;103347;-75
2022/05/27 11:23:51;;;;;;;2.67;1.60;;;;;;;22.49;52.40;99155.69;5017928;27;102942;-75
2022/05/27 11:26:28;;;;;;;2.53;1.50;;;;;;;22.44;50.89;99144.63;5022459;27;104255;-76
2022/05/27 11:29:10;;;;;;;2.22;1.40;;;;;;;23.21;51.08;99137.44;5026540;27;104147;-74
2022/05/27 11:31:54;;;;;;;2.67;1.80;;;;;;;23.21;50.25;99126.66;5020538;27;103262;-74
2022/05/27 11:34:26;;;;;;;2.50;1.60;;;;;;;22.84;50.68;99129.28;5011748;27;102665;-72
2022/05/27 11:37:12;;;;;;;1.58;1.40;;;;;;;22.41;50.11;99139.59;5025156;27;103864;-73
2022/05/27 11:40:05;;;;;;;1.83;1.13;;;;;;;22.74;49.50;99121.44;5003767;27;104465;-74
2022/05/27 11:42:55;;;;;;;2.90;1.45;;;;;;;22.50;50.39;99125.09;5008985;27;103219;-74
2022/05/27 11:45:26;;;;;;;3.00;1.50;;;;;;;22.43;51.63;99120.56;5006904;27;103811;-74
2022/05/27 11:48:04;;;;;;;2.33;1.30;;;;;;;22.09;51.07;99118.19;5026992;27;103533;-75
2022/05/27 11:51:02;;;;;;;2.67;1.38;;;;;;;22.08;50.52;99111.13;5012788;27;104421;-75
2022/05/27 11:53:47;;;;;;;1.70;1.00;;;;;;;22.74;49.29;99099.03;5021999;27;103248;-74
2022/05/27 11:56:19;;;;;;;3.25;1.50;;;;;;;23.10;49.10;99103.66;5007839;27;103814;-74
2022/05/27 11:58:57;;;;;;;1.40;1.10;;;;;;;24.00;48.30;99090.19;5025568;27;103396;-74
2022/05/27 12:01:36;;;;;;;1.33;1.20;;;;;;;24.45;47.47;99084.53;5024636;27;104653;-73
2022/05/27 12:04:14;;;;;;;1.83;1.20;;;;;;;24.41;46.41;99082.44;5017063;27;104546;-75
2022/05/27 12:06:49;;;;;;;4.40;1.30;;;;;;;24.24;47.32;99087.22;5021407;27;102671;-75
2022/05/27 12:09:28;;;;;;;2.77;1.30;;;;;;;24.93;46.00;99090.28;5020754;27;104103;-75
2022/05/27 12:12:01;;;;;;;4.67;1.50;;;;;;;25.12;44.03;99086.97;5018231;27;104154;-75
2022/05/27 12:14:37;;;;;;;6.25;1.30;;;;;;;24.57;45.32;99088.44;5008860;27;104284;-76
2022/05/27 12:17:10;;;;;;;2.77;1.17;;;;;;;24.38;46.05;99077.41;5021470;27;102853;-75